Lobo

Go HERE for most recent data if this page is not up to date.

Jump to table bottom
Date/Time Temp deg F RH % 24 Hr Snow (in) Snow Depth (in) H2O (in)
04/07 19:00 35.0 55 0.0 68.0 0.00
04/07 18:00 36.0 55 -0.0 68.0 0.00
04/07 17:00 35.8 50 -0.0 68.0 0.00
04/07 16:00 37.4 49 -0.2 67.9 0.00
04/07 15:00 38.9 45 -0.3 68.0 0.00
04/07 14:00 40.3 38 -0.3 68.2 0.00
04/07 13:00 37.8 41 -0.2 68.5 0.00
04/07 12:00 35.1 45 -0.0 69.2 0.00
04/07 11:00 30.8 52 0.0 69.4 0.00
04/07 10:00 29.3 55 0.3 69.6 0.00
04/07 09:00 28.0 62 0.4 69.4 0.00
04/07 08:00 27.0 63 0.4 69.5 0.00
04/07 07:00 26.7 69 0.4 69.7 0.00
04/07 06:00 27.3 72 0.4 69.6 0.00
04/07 05:00 27.8 77 0.4 69.6 0.00
04/07 04:00 28.1 77 0.4 69.6 0.00
04/07 03:00 28.3 77 0.4 69.7 0.00
04/07 02:00 28.2 82 0.4 69.4 0.00
04/07 01:00 28.1 82 0.4 69.3 0.00
04/07 00:00 27.6 91 0.3 69.4 0.02
04/06 23:00 28.9 84 0.0 69.3 0.00
04/06 22:00 28.8 80 0.0 69.5 0.00
04/06 21:00 28.2 76 0.0 69.5 0.00
04/06 20:00 29.4 75 -0.0 69.4 0.00
04/06 19:00 31.7 68 0.0 69.4 0.00
04/06 18:00 32.9 70 0.0 69.5 0.00
04/06 17:00 33.3 68 0.0 69.4 0.00
04/06 16:00 30.7 78 0.0 69.4 0.04
04/06 15:00 33.3 80 -0.2 68.5 0.00
04/06 14:00 33.6 65 -0.0 68.9 0.00
04/06 13:00 33.1 62 -0.0 69.0 0.00
04/06 12:00 32.5 73 -0.0 69.0 0.00
04/06 11:00 30.6 71 0.0 69.3 0.00
04/06 10:00 28.0 85 0.1 69.3 0.00
04/06 09:00 26.0 92 0.2 69.2 0.01
04/06 08:00 25.6 92 0.1 69.2 0.00
04/06 07:00 25.6 85 0.2 69.2 0.00
04/06 06:00 25.2 71 0.2 69.3 0.00
04/06 05:00 25.6 78 0.1 69.2 0.00
04/06 04:00 25.2 75 0.2 69.3 0.00
04/06 03:00 24.5 75 0.2 69.3 0.00
04/06 02:00 25.0 72 0.2 69.3 0.00
04/06 01:00 24.3 76 0.0 69.1 0.00
04/06 00:00 25.6 77 0.0 69.2 0.00
.